Time;durP1;ratioP1;P1;durP2;ratioP2;P2;SDS_P1;SDS_P2;PMS_P1;PMS_P2;Temp;Humidity;BMP_temperature;BMP_pressure;BME280_temperature;BME280_humidity;BME280_pressure;Samples;Min_cycle;Max_cycle;Signal;HPM_P1;HPM_P2
2023/03/05 00:00:13;;;;;;;3.53;2.03;;;3.30;99.90;;;;;;4989575;28;20039;-80
2023/03/05 00:02:39;;;;;;;6.55;2.03;;;3.30;99.90;;;;;;4985155;28;20050;-80
2023/03/05 00:05:05;;;;;;;4.50;2.05;;;3.30;99.90;;;;;;4989930;28;20039;-80
2023/03/05 00:07:32;;;;;;;7.65;2.50;;;3.30;99.90;;;;;;4989342;28;20042;-80
2023/03/05 00:10:01;;;;;;;6.10;1.95;;;3.30;99.90;;;;;;4989909;28;20054;-80
2023/03/05 00:12:28;;;;;;;8.73;2.00;;;3.30;99.90;;;;;;4986229;28;20054;-80
2023/03/05 00:14:53;;;;;;;4.60;1.70;;;3.50;99.90;;;;;;4970139;28;20046;-79
2023/03/05 00:17:19;;;;;;;3.47;2.15;;;3.30;99.90;;;;;;4986481;28;20042;-80
2023/03/05 00:19:44;;;;;;;8.75;1.80;;;3.30;99.90;;;;;;4988934;28;20116;-80
2023/03/05 00:22:10;;;;;;;3.97;1.75;;;3.40;99.90;;;;;;4971371;28;20488;-80
2023/03/05 00:24:36;;;;;;;7.90;2.00;;;3.30;99.90;;;;;;4971839;28;20053;-80
2023/03/05 00:27:02;;;;;;;5.88;2.00;;;3.40;99.90;;;;;;4986678;28;20133;-80
2023/03/05 00:29:29;;;;;;;5.40;2.05;;;3.40;99.90;;;;;;4988804;28;20058;-80
2023/03/05 00:31:55;;;;;;;5.05;1.63;;;3.40;99.90;;;;;;4971919;28;20148;-80
2023/03/05 00:34:21;;;;;;;3.85;1.80;;;3.40;99.90;;;;;;4969843;28;20558;-80
2023/03/05 00:36:50;;;;;;;4.90;1.70;;;3.40;99.90;;;;;;4986020;28;20062;-80
2023/03/05 00:39:17;;;;;;;5.55;1.83;;;3.40;99.90;;;;;;4986608;28;20050;-81
2023/03/05 00:41:43;;;;;;;2.95;1.77;;;3.40;99.90;;;;;;4988037;28;20096;-81
2023/03/05 00:44:10;;;;;;;5.05;1.75;;;3.90;99.90;;;;;;4982923;28;20198;-81
2023/03/05 00:46:36;;;;;;;4.57;1.70;;;3.40;99.90;;;;;;4986772;28;20050;-81
2023/03/05 00:49:02;;;;;;;5.50;1.60;;;3.40;99.90;;;;;;4986862;28;20050;-81
2023/03/05 00:51:27;;;;;;;3.58;1.70;;;3.30;99.90;;;;;;4987436;28;20108;-81
2023/03/05 00:53:54;;;;;;;2.22;1.60;;;3.30;99.90;;;;;;4970292;28;20081;-81
2023/03/05 00:56:20;;;;;;;5.07;1.45;;;3.30;99.90;;;;;;4984530;28;20073;-81
2023/03/05 00:58:46;;;;;;;4.13;1.50;;;3.30;99.90;;;;;;4977449;28;20058;-81
2023/03/05 01:01:12;;;;;;;3.88;1.48;;;3.30;99.90;;;;;;4968862;28;20133;-81
2023/03/05 01:03:38;;;;;;;4.43;1.30;;;3.30;99.90;;;;;;4972139;28;20061;-81
2023/03/05 01:06:07;;;;;;;4.38;1.48;;;3.20;99.90;;;;;;4969186;28;20038;-82
2023/03/05 01:08:35;;;;;;;3.25;1.58;;;3.20;99.90;;;;;;4984810;28;20064;-82
2023/03/05 01:11:01;;;;;;;2.80;1.63;;;3.20;99.90;;;;;;4972474;28;20054;-82
2023/03/05 01:13:27;;;;;;;6.55;1.95;;;3.20;99.90;;;;;;4985143;28;20049;-82
2023/03/05 01:15:53;;;;;;;4.95;1.65;;;3.10;99.90;;;;;;4987379;28;20503;-82
2023/03/05 01:18:19;;;;;;;3.17;1.52;;;4.10;99.90;;;;;;4972200;28;20081;-81
2023/03/05 01:20:45;;;;;;;3.55;1.90;;;3.10;99.90;;;;;;4984078;28;20383;-81
2023/03/05 01:23:11;;;;;;;5.10;1.65;;;3.10;99.90;;;;;;4985924;28;20057;-82
2023/03/05 01:25:37;;;;;;;5.95;2.22;;;3.10;99.90;;;;;;4986148;28;20046;-81
2023/03/05 01:28:03;;;;;;;4.68;1.70;;;3.00;99.90;;;;;;4987294;28;20046;-81
2023/03/05 01:30:29;;;;;;;4.88;1.55;;;2.70;99.90;;;;;;4987884;28;20165;-82
2023/03/05 01:32:55;;;;;;;5.53;1.75;;;3.00;99.90;;;;;;4988219;28;20045;-82
2023/03/05 01:35:23;;;;;;;4.00;1.50;;;3.00;99.90;;;;;;4982852;28;20431;-81
2023/03/05 01:37:50;;;;;;;7.25;1.60;;;3.20;99.90;;;;;;4968050;28;20053;-82
2023/03/05 01:40:20;;;;;;;3.60;1.50;;;3.00;99.90;;;;;;4986475;28;20112;-82
2023/03/05 01:42:55;;;;;;;9.73;2.10;;;3.00;99.90;;;;;;4982884;28;20077;-82
2023/03/05 01:45:22;;;;;;;3.60;1.55;;;3.00;99.90;;;;;;4985487;28;20042;-82
2023/03/05 01:47:50;;;;;;;3.03;1.73;;;3.00;99.90;;;;;;4987775;28;20042;-81
2023/03/05 01:50:21;;;;;;;3.08;2.10;;;2.90;99.90;;;;;;4985434;28;20038;-81
2023/03/05 01:52:53;;;;;;;5.03;2.10;;;2.90;99.90;;;;;;4987970;28;20421;-82
2023/03/05 01:55:23;;;;;;;6.03;2.05;;;2.90;99.90;;;;;;4966080;28;20066;-82
2023/03/05 01:57:57;;;;;;;6.95;1.90;;;2.90;99.90;;;;;;4968717;28;20046;-82
2023/03/05 02:00:33;;;;;;;4.97;2.10;;;3.30;99.90;;;;;;4969079;28;20042;-82
2023/03/05 02:03:04;;;;;;;4.25;1.98;;;2.80;99.90;;;;;;4985711;28;20525;-82
2023/03/05 02:05:33;;;;;;;6.20;1.92;;;2.90;99.90;;;;;;4983092;28;20645;-82
2023/03/05 02:08:01;;;;;;;6.78;2.10;;;3.60;99.90;;;;;;4986682;28;20386;-82
2023/03/05 02:10:34;;;;;;;5.57;1.67;;;2.70;99.90;;;;;;4967586;28;20042;-81
2023/03/05 02:13:03;;;;;;;4.07;1.85;;;2.70;99.90;;;;;;4969937;28;20404;-82
2023/03/05 02:15:29;;;;;;;5.53;1.58;;;2.70;99.90;;;;;;4965774;28;20133;-82
2023/03/05 02:17:55;;;;;;;3.67;1.98;;;2.70;99.90;;;;;;4969907;28;20050;-82
2023/03/05 02:20:24;;;;;;;5.70;1.80;;;2.70;99.90;;;;;;4969198;28;20057;-82
2023/03/05 02:22:50;;;;;;;5.75;1.80;;;2.70;99.90;;;;;;4985764;28;20046;-82
2023/03/05 02:25:21;;;;;;;6.35;2.30;;;2.70;99.90;;;;;;4969249;28;20046;-81
2023/03/05 02:28:07;;;;;;;4.78;1.52;;;2.70;99.90;;;;;;4985249;28;20157;-82
2023/03/05 02:30:34;;;;;;;5.95;1.98;;;2.60;99.90;;;;;;4969292;28;20054;-82
2023/03/05 02:33:00;;;;;;;3.58;1.80;;;2.60;99.90;;;;;;4966733;28;20077;-82
2023/03/05 02:35:26;;;;;;;3.80;1.60;;;2.60;99.90;;;;;;4968916;28;20053;-81
2023/03/05 02:37:53;;;;;;;6.18;2.03;;;2.50;99.90;;;;;;4981383;28;20076;-82
2023/03/05 02:40:19;;;;;;;7.68;2.05;;;2.50;99.90;;;;;;4984559;28;20064;-82
2023/03/05 02:42:45;;;;;;;3.97;2.67;;;2.50;99.90;;;;;;4979406;28;20045;-82
2023/03/05 02:45:11;;;;;;;3.55;1.50;;;2.50;99.90;;;;;;4983182;28;20051;-82
2023/03/05 02:47:37;;;;;;;2.45;1.70;;;2.60;99.90;;;;;;4966800;28;20146;-82
2023/03/05 02:50:04;;;;;;;4.30;1.80;;;2.60;99.90;;;;;;4983199;28;20039;-82
2023/03/05 02:52:31;;;;;;;6.50;2.50;;;2.60;99.90;;;;;;4967195;28;20086;-82
2023/03/05 02:54:56;;;;;;;8.10;2.42;;;2.80;99.90;;;;;;4985245;28;20052;-82
2023/03/05 02:57:22;;;;;;;5.95;1.98;;;2.60;99.90;;;;;;4968022;28;20137;-82
2023/03/05 02:59:48;;;;;;;4.97;1.90;;;3.40;99.90;;;;;;4984246;28;20153;-82
2023/03/05 03:02:14;;;;;;;4.30;2.25;;;2.70;99.90;;;;;;4967734;28;20042;-82
2023/03/05 03:04:39;;;;;;;8.43;2.10;;;2.50;99.90;;;;;;4985482;28;20130;-82
2023/03/05 03:07:05;;;;;;;5.93;2.10;;;2.50;99.90;;;;;;4981395;28;20472;-81
2023/03/05 03:09:34;;;;;;;4.72;2.05;;;2.80;99.90;;;;;;4969084;28;20634;-82
2023/03/05 03:11:59;;;;;;;6.53;1.85;;;2.50;99.90;;;;;;4984576;28;20080;-81
2023/03/05 03:14:25;;;;;;;3.13;1.55;;;3.40;99.90;;;;;;4983630;28;20043;-82
2023/03/05 03:16:51;;;;;;;6.40;1.80;;;3.10;99.90;;;;;;4985977;28;20042;-81
2023/03/05 03:19:16;;;;;;;5.32;1.60;;;3.10;99.90;;;;;;4982724;28;20407;-81
2023/03/05 03:21:42;;;;;;;4.70;1.73;;;2.50;99.90;;;;;;4984770;28;20046;-81
2023/03/05 03:24:08;;;;;;;5.28;2.00;;;2.60;99.90;;;;;;4983352;28;20034;-81
2023/03/05 03:26:33;;;;;;;4.82;2.33;;;2.60;99.90;;;;;;4967870;28;20038;-82
2023/03/05 03:28:59;;;;;;;5.80;1.90;;;2.50;99.90;;;;;;4983778;28;20043;-82
2023/03/05 03:31:25;;;;;;;6.05;1.90;;;2.60;99.90;;;;;;4967465;28;20408;-81
2023/03/05 03:33:50;;;;;;;8.15;2.00;;;2.60;99.90;;;;;;4967433;28;20038;-82
2023/03/05 03:36:16;;;;;;;9.57;2.08;;;2.60;99.90;;;;;;4984701;28;20054;-81
2023/03/05 03:38:42;;;;;;;7.68;2.28;;;2.60;99.90;;;;;;4984818;28;20069;-81
2023/03/05 03:41:08;;;;;;;4.80;1.52;;;2.60;99.90;;;;;;4983542;28;20126;-81
2023/03/05 03:43:35;;;;;;;6.30;1.90;;;2.60;99.90;;;;;;4962513;28;20038;-81
2023/03/05 03:46:04;;;;;;;5.82;1.77;;;2.60;99.90;;;;;;4962050;28;20151;-82
2023/03/05 03:48:30;;;;;;;6.47;1.90;;;2.60;99.90;;;;;;4985005;28;20545;-81
2023/03/05 03:50:56;;;;;;;2.78;1.60;;;2.70;99.90;;;;;;4983277;28;20042;-82
2023/03/05 03:53:21;;;;;;;2.78;1.58;;;2.70;99.90;;;;;;4984225;28;20131;-81
2023/03/05 03:55:47;;;;;;;2.28;1.98;;;2.70;99.90;;;;;;4968096;28;20481;-82
2023/03/05 03:58:13;;;;;;;4.45;1.30;;;2.60;99.90;;;;;;4984371;28;20049;-81
2023/03/05 04:00:43;;;;;;;3.70;1.55;;;2.70;99.90;;;;;;4984464;28;20046;-82
2023/03/05 04:03:09;;;;;;;6.57;1.40;;;2.70;99.90;;;;;;4989555;28;20540;-81
2023/03/05 04:05:35;;;;;;;3.08;1.70;;;3.20;99.90;;;;;;4970774;28;20089;-82
2023/03/05 04:08:00;;;;;;;4.45;1.85;;;2.80;99.90;;;;;;4989052;28;20050;-82
2023/03/05 04:10:29;;;;;;;4.95;1.50;;;2.80;99.90;;;;;;4986739;28;20864;-83
2023/03/05 04:12:54;;;;;;;3.45;1.30;;;2.80;99.90;;;;;;4982757;28;20053;-83
2023/03/05 04:15:20;;;;;;;3.67;1.40;;;2.80;99.90;;;;;;4988918;28;20038;-82
2023/03/05 04:17:46;;;;;;;2.58;1.25;;;2.80;99.90;;;;;;4985732;28;20073;-83
2023/03/05 04:20:12;;;;;;;1.75;1.40;;;2.80;99.90;;;;;;4985104;28;20100;-82
2023/03/05 04:22:37;;;;;;;2.05;1.30;;;2.80;99.90;;;;;;4986398;28;20058;-82
2023/03/05 04:25:05;;;;;;;2.25;1.30;;;2.80;99.90;;;;;;4987768;28;20038;-82
2023/03/05 04:27:33;;;;;;;4.53;1.30;;;2.70;99.90;;;;;;4987449;28;20110;-82
2023/03/05 04:29:58;;;;;;;1.52;1.27;;;2.80;99.90;;;;;;4970513;28;20054;-82
2023/03/05 04:32:28;;;;;;;4.57;1.27;;;2.80;99.90;;;;;;4983713;28;20050;-82
2023/03/05 04:34:55;;;;;;;6.03;1.38;;;2.80;99.90;;;;;;4988705;28;20078;-82
2023/03/05 04:37:22;;;;;;;4.63;1.38;;;2.80;99.90;;;;;;4987968;28;20054;-82
2023/03/05 04:39:47;;;;;;;1.90;1.42;;;2.80;99.90;;;;;;4983961;28;20140;-82
2023/03/05 04:42:13;;;;;;;3.28;1.02;;;2.70;99.90;;;;;;4988947;28;20053;-82
2023/03/05 04:44:39;;;;;;;1.98;1.30;;;2.70;99.90;;;;;;4987739;28;20125;-82
2023/03/05 04:47:05;;;;;;;1.77;1.20;;;2.70;99.90;;;;;;4983580;28;20038;-82
2023/03/05 04:49:30;;;;;;;4.10;1.33;;;2.70;99.90;;;;;;4970452;28;20065;-82
2023/03/05 04:51:56;;;;;;;1.75;1.00;;;2.70;99.90;;;;;;4985052;28;20543;-82
2023/03/05 04:54:22;;;;;;;1.45;0.90;;;2.70;99.90;;;;;;4987921;28;20050;-82
2023/03/05 04:56:48;;;;;;;4.15;1.30;;;2.70;99.90;;;;;;4985996;28;20041;-82
2023/03/05 04:59:14;;;;;;;4.10;1.13;;;2.70;99.90;;;;;;4987805;28;20046;-82
2023/03/05 05:01:39;;;;;;;1.88;1.30;;;2.70;99.90;;;;;;4983274;28;20458;-82
2023/03/05 05:04:05;;;;;;;1.50;0.98;;;2.70;99.90;;;;;;4978105;28;20153;-82
2023/03/05 05:06:31;;;;;;;3.20;1.30;;;2.70;99.90;;;;;;4967865;28;20096;-82
2023/03/05 05:08:56;;;;;;;1.88;1.20;;;2.70;99.90;;;;;;4982392;28;20058;-82
2023/03/05 05:11:22;;;;;;;5.07;1.17;;;3.40;99.90;;;;;;4985585;28;20053;-82
2023/03/05 05:13:48;;;;;;;1.58;1.00;;;2.70;99.90;;;;;;4985080;28;20047;-82
2023/03/05 05:16:15;;;;;;;1.80;1.17;;;2.70;99.90;;;;;;4986286;28;20440;-82
2023/03/05 05:18:40;;;;;;;2.13;1.25;;;3.30;99.90;;;;;;4967338;28;20042;-82
2023/03/05 05:21:10;;;;;;;2.22;1.00;;;2.70;99.90;;;;;;4985878;28;20105;-82
2023/03/05 05:23:36;;;;;;;4.18;1.33;;;2.70;99.90;;;;;;4985721;28;20042;-82
2023/03/05 05:26:06;;;;;;;1.27;1.17;;;2.70;99.90;;;;;;4986647;28;20105;-82
2023/03/05 05:28:33;;;;;;;4.20;1.63;;;2.70;99.90;;;;;;4984805;28;20064;-82
2023/03/05 05:30:58;;;;;;;5.18;1.35;;;2.70;99.90;;;;;;4984384;28;20501;-82
2023/03/05 05:33:25;;;;;;;1.85;1.10;;;2.70;99.90;;;;;;4983070;28;20049;-82
2023/03/05 05:35:51;;;;;;;1.60;1.00;;;2.70;99.90;;;;;;4964937;28;20478;-82
2023/03/05 05:38:17;;;;;;;3.08;1.00;;;2.70;99.90;;;;;;4985552;28;20056;-82
2023/03/05 05:40:43;;;;;;;2.70;1.10;;;2.70;99.90;;;;;;4985920;28;20042;-82
2023/03/05 05:43:09;;;;;;;3.50;1.23;;;2.70;99.90;;;;;;4985165;28;20169;-82
2023/03/05 05:45:37;;;;;;;3.38;1.60;;;2.70;99.90;;;;;;4985760;28;20042;-82
2023/03/05 05:48:03;;;;;;;2.53;1.20;;;2.70;99.90;;;;;;4978805;28;20474;-79
2023/03/05 05:50:28;;;;;;;3.55;1.10;;;3.40;99.90;;;;;;4982786;28;20045;-82
2023/03/05 05:52:54;;;;;;;1.50;1.10;;;2.70;99.90;;;;;;4986833;28;20078;-82
2023/03/05 05:55:20;;;;;;;1.25;1.00;;;2.70;99.90;;;;;;4982893;28;20034;-82
2023/03/05 05:57:46;;;;;;;3.38;1.10;;;2.70;99.90;;;;;;4985619;28;20038;-83
2023/03/05 06:00:13;;;;;;;3.30;1.20;;;2.70;99.90;;;;;;4986935;28;20395;-82
2023/03/05 06:02:42;;;;;;;1.30;1.15;;;2.60;99.90;;;;;;4986527;28;20050;-82
2023/03/05 06:05:11;;;;;;;1.60;1.13;;;2.60;99.90;;;;;;4983858;28;20049;-82
2023/03/05 06:07:36;;;;;;;1.13;1.02;;;2.60;99.90;;;;;;4988271;28;20065;-82
2023/03/05 06:10:03;;;;;;;4.20;1.10;;;2.60;99.90;;;;;;4987165;28;20497;-82
2023/03/05 06:12:29;;;;;;;3.10;0.93;;;2.60;99.90;;;;;;4985861;28;20050;-82
2023/03/05 06:14:55;;;;;;;2.13;1.17;;;2.50;99.90;;;;;;4988675;28;20049;-82
2023/03/05 06:17:20;;;;;;;3.33;1.30;;;2.60;99.90;;;;;;4986579;28;20069;-82
2023/03/05 06:19:46;;;;;;;2.75;1.10;;;2.50;99.90;;;;;;4984853;28;20473;-83
2023/03/05 06:22:11;;;;;;;4.53;1.02;;;2.60;99.90;;;;;;4987438;28;20053;-82
2023/03/05 06:24:37;;;;;;;3.13;1.75;;;2.60;99.90;;;;;;4967993;28;20062;-82
2023/03/05 06:27:04;;;;;;;2.75;1.05;;;2.60;99.90;;;;;;4986526;28;20053;-83
2023/03/05 06:29:31;;;;;;;3.25;1.35;;;2.60;99.90;;;;;;4980297;28;20104;-82
2023/03/05 06:31:56;;;;;;;3.33;1.35;;;2.60;99.90;;;;;;4967755;28;20430;-81
2023/03/05 06:34:22;;;;;;;4.35;1.23;;;2.60;99.90;;;;;;4983814;28;20058;-82
2023/03/05 06:36:48;;;;;;;5.25;1.20;;;2.60;99.90;;;;;;4980299;28;20841;-82
2023/03/05 06:39:14;;;;;;;2.33;1.10;;;2.60;99.90;;;;;;4981872;28;20169;-81
2023/03/05 06:41:40;;;;;;;3.50;1.38;;;2.70;99.90;;;;;;4982259;28;20186;-81
2023/03/05 06:44:05;;;;;;;4.13;1.40;;;2.70;99.90;;;;;;4986725;28;20133;-82
2023/03/05 06:46:33;;;;;;;2.10;1.23;;;2.70;99.90;;;;;;4986563;28;20158;-81
2023/03/05 06:49:01;;;;;;;3.75;1.08;;;2.70;99.90;;;;;;4984867;28;20091;-82
2023/03/05 06:51:31;;;;;;;7.35;1.60;;;2.70;99.90;;;;;;4985493;28;20058;-82
2023/03/05 06:54:03;;;;;;;3.00;1.40;;;2.70;99.90;;;;;;4985913;28;20049;-82
2023/03/05 06:56:28;;;;;;;1.13;1.03;;;2.70;99.90;;;;;;4984187;28;20535;-82
2023/03/05 06:58:54;;;;;;;3.25;1.45;;;2.80;99.90;;;;;;4988827;28;20046;-82
2023/03/05 07:01:20;;;;;;;2.65;1.30;;;2.70;99.90;;;;;;4983046;28;20089;-82
2023/03/05 07:03:50;;;;;;;2.97;1.80;;;2.70;99.90;;;;;;4982528;28;20508;-81
2023/03/05 07:06:17;;;;;;;5.00;1.60;;;2.70;99.90;;;;;;4988156;28;20042;-82
2023/03/05 07:08:46;;;;;;;3.75;1.55;;;2.70;99.90;;;;;;4988779;28;20113;-82
2023/03/05 07:11:13;;;;;;;3.00;1.50;;;2.70;99.90;;;;;;4986361;28;20046;-82
2023/03/05 07:13:39;;;;;;;1.92;1.10;;;2.70;99.90;;;;;;4987727;28;20038;-81
2023/03/05 07:16:12;;;;;;;3.60;1.40;;;2.70;99.90;;;;;;4986458;28;20089;-82
2023/03/05 07:18:37;;;;;;;2.83;1.25;;;2.80;99.90;;;;;;4987047;28;20109;-81
2023/03/05 07:21:04;;;;;;;5.18;1.38;;;2.80;99.90;;;;;;4986348;28;20505;-82
2023/03/05 07:23:30;;;;;;;3.88;1.40;;;2.80;99.90;;;;;;4972981;28;20040;-82
2023/03/05 07:25:56;;;;;;;3.33;1.50;;;2.80;99.90;;;;;;4988033;28;20042;-84
2023/03/05 07:28:22;;;;;;;1.50;1.20;;;2.80;99.90;;;;;;4987393;28;20161;-83
2023/03/05 07:30:58;;;;;;;1.40;1.30;;;2.90;99.90;;;;;;4986802;28;20038;-82
2023/03/05 07:33:24;;;;;;;4.35;1.50;;;2.90;99.90;;;;;;4986775;28;20121;-83
2023/03/05 07:35:50;;;;;;;4.07;1.45;;;3.00;99.90;;;;;;4990211;28;20054;-83
2023/03/05 07:38:15;;;;;;;2.47;1.23;;;3.00;99.90;;;;;;4988771;28;20105;-83
2023/03/05 07:40:41;;;;;;;4.53;1.52;;;3.00;99.90;;;;;;4985186;28;20422;-84
2023/03/05 07:43:07;;;;;;;3.47;1.40;;;3.10;99.90;;;;;;4991277;28;20432;-82
2023/03/05 07:45:33;;;;;;;3.38;1.60;;;3.10;99.90;;;;;;4989827;28;20050;-80
2023/03/05 07:47:59;;;;;;;3.22;1.30;;;3.20;99.90;;;;;;4991407;28;20088;-82
2023/03/05 07:50:24;;;;;;;3.90;1.50;;;3.20;99.90;;;;;;4988296;28;20058;-82
2023/03/05 07:52:50;;;;;;;5.90;1.70;;;3.30;99.90;;;;;;4987053;28;20054;-81
2023/03/05 07:55:16;;;;;;;3.33;1.27;;;3.40;99.90;;;;;;4989692;28;20038;-81
2023/03/05 07:57:41;;;;;;;4.63;1.58;;;3.40;99.90;;;;;;4991311;28;20118;-82
2023/03/05 08:00:07;;;;;;;2.60;1.60;;;3.40;99.90;;;;;;4989774;28;20555;-82
2023/03/05 08:02:33;;;;;;;4.65;1.52;;;3.40;99.90;;;;;;4990703;28;20055;-82
2023/03/05 08:04:59;;;;;;;3.58;1.75;;;3.50;99.90;;;;;;4990381;28;20165;-81
2023/03/05 08:07:24;;;;;;;5.78;1.58;;;3.50;99.90;;;;;;4990751;28;20061;-82
2023/03/05 08:09:50;;;;;;;3.80;1.60;;;3.50;99.90;;;;;;4989677;28;20038;-81
2023/03/05 08:12:15;;;;;;;4.20;1.58;;;3.60;99.90;;;;;;4972810;28;20046;-82
2023/03/05 08:14:41;;;;;;;6.85;1.98;;;3.70;99.90;;;;;;4990110;28;20042;-82
2023/03/05 08:17:07;;;;;;;2.97;1.42;;;3.70;99.90;;;;;;4990874;28;20058;-82
2023/03/05 08:19:33;;;;;;;3.55;1.73;;;3.80;99.90;;;;;;4972919;28;20057;-82
2023/03/05 08:21:58;;;;;;;3.95;1.65;;;3.80;99.90;;;;;;4972248;28;20405;-82
2023/03/05 08:24:28;;;;;;;4.93;2.13;;;3.90;99.90;;;;;;4987969;28;20042;-82
2023/03/05 08:26:55;;;;;;;5.63;1.58;;;4.00;99.90;;;;;;4990645;28;20123;-82
2023/03/05 08:29:21;;;;;;;3.40;1.52;;;4.00;99.90;;;;;;4990458;28;20057;-81
2023/03/05 08:31:47;;;;;;;7.78;1.95;;;4.10;99.90;;;;;;4988565;28;20679;-82
2023/03/05 08:34:13;;;;;;;5.75;1.60;;;4.10;99.90;;;;;;4988712;28;20042;-81
2023/03/05 08:36:39;;;;;;;5.85;1.60;;;4.20;99.90;;;;;;4988460;28;20088;-82
2023/03/05 08:39:05;;;;;;;6.18;1.75;;;4.30;99.90;;;;;;4990130;28;20065;-81
2023/03/05 08:41:31;;;;;;;3.45;1.60;;;4.40;99.90;;;;;;4996324;28;20386;-81
2023/03/05 08:43:57;;;;;;;4.78;1.63;;;4.40;99.90;;;;;;4990458;28;20046;-82
2023/03/05 08:46:23;;;;;;;5.45;2.13;;;4.50;99.90;;;;;;4987288;28;20042;-81
2023/03/05 08:48:49;;;;;;;3.42;1.67;;;4.50;99.90;;;;;;4988673;28;20054;-80
2023/03/05 08:51:25;;;;;;;2.63;1.67;;;4.60;99.90;;;;;;4989863;28;20046;-81
2023/03/05 08:53:53;;;;;;;4.70;1.33;;;4.60;99.90;;;;;;4989866;28;20042;-81
2023/03/05 08:56:19;;;;;;;6.38;1.35;;;4.70;99.90;;;;;;4988129;28;20057;-81
2023/03/05 08:58:46;;;;;;;3.67;1.35;;;4.80;99.90;;;;;;4988718;28;20046;-81
2023/03/05 09:01:12;;;;;;;3.83;1.35;;;4.90;99.90;;;;;;4990171;28;20050;-81
2023/03/05 09:03:38;;;;;;;6.90;1.30;;;5.00;99.90;;;;;;4989287;28;20081;-81
2023/03/05 09:06:07;;;;;;;4.63;1.33;;;5.10;99.90;;;;;;4990048;28;20074;-81
2023/03/05 09:08:34;;;;;;;2.08;1.17;;;5.10;99.90;;;;;;4987778;28;20081;-81
2023/03/05 09:11:05;;;;;;;5.07;1.50;;;5.10;99.90;;;;;;4988332;28;20060;-81
2023/03/05 09:13:32;;;;;;;4.60;1.90;;;5.20;99.90;;;;;;4988340;28;20141;-81
2023/03/05 09:16:00;;;;;;;5.47;1.17;;;5.20;99.90;;;;;;4989598;28;20050;-82
2023/03/05 09:18:26;;;;;;;5.80;1.27;;;5.30;99.90;;;;;;4988573;28;20493;-81
2023/03/05 09:20:52;;;;;;;10.23;1.52;;;5.40;99.90;;;;;;4988120;28;20050;-81
2023/03/05 09:23:21;;;;;;;4.45;1.35;;;5.40;99.90;;;;;;4988339;28;20046;-81
2023/03/05 09:25:48;;;;;;;5.00;1.35;;;5.50;99.90;;;;;;4971611;28;20039;-81
2023/03/05 09:28:14;;;;;;;2.55;1.13;;;5.60;99.90;;;;;;4987184;28;20126;-81
2023/03/05 09:30:40;;;;;;;3.00;0.90;;;5.60;99.90;;;;;;4971605;28;20264;-81
2023/03/05 09:33:05;;;;;;;4.03;1.58;;;5.70;99.90;;;;;;4989148;28;20136;-82
2023/03/05 09:35:34;;;;;;;3.78;1.13;;;5.80;99.90;;;;;;4987998;28;20038;-81
2023/03/05 09:38:00;;;;;;;5.03;1.58;;;5.80;99.90;;;;;;4986590;28;20077;-82
2023/03/05 09:40:40;;;;;;;3.92;1.35;;;5.80;99.90;;;;;;4986135;28;20072;-82
2023/03/05 09:43:47;;;;;;;4.82;1.38;;;5.80;99.90;;;;;;4987565;28;20065;-82
2023/03/05 09:46:27;;;;;;;4.68;1.20;;;5.90;99.90;;;;;;4986942;28;20049;-81
2023/03/05 09:49:26;;;;;;;4.22;1.05;;;6.00;99.90;;;;;;4988414;28;20390;-81
2023/03/05 09:52:02;;;;;;;3.65;1.05;;;6.20;99.90;;;;;;4987091;28;20042;-81
2023/03/05 09:54:44;;;;;;;3.00;0.80;;;6.30;99.90;;;;;;4981256;28;20100;-82
2023/03/05 09:57:40;;;;;;;5.15;1.20;;;6.40;99.90;;;;;;4986884;28;20058;-81
2023/03/05 10:00:15;;;;;;;4.25;0.80;;;6.50;99.90;;;;;;4981097;28;20054;-79
2023/03/05 10:02:50;;;;;;;2.92;1.02;;;6.60;99.90;;;;;;4989360;28;20058;-82
2023/03/05 10:05:26;;;;;;;2.00;1.00;;;6.70;99.90;;;;;;4979997;28;20046;-82
2023/03/05 10:07:59;;;;;;;4.22;0.98;;;6.70;99.90;;;;;;4987469;28;20074;-82
2023/03/05 10:10:37;;;;;;;4.72;1.08;;;6.70;99.90;;;;;;4974523;28;20536;-82
2023/03/05 10:13:19;;;;;;;3.08;1.10;;;6.80;99.90;;;;;;4986890;28;20055;-82
2023/03/05 10:16:09;;;;;;;6.13;2.30;;;6.90;99.90;;;;;;4984643;28;20049;-82
2023/03/05 10:19:01;;;;;;;6.38;3.35;;;7.10;99.90;;;;;;4987326;28;20082;-82
2023/03/05 10:21:31;;;;;;;3.90;1.10;;;7.20;99.90;;;;;;4983219;28;20053;-82
2023/03/05 10:24:40;;;;;;;4.68;1.15;;;7.10;99.90;;;;;;4987973;28;20049;-82
2023/03/05 10:27:18;;;;;;;4.78;1.20;;;7.00;99.90;;;;;;4986599;28;20073;-82
2023/03/05 10:30:05;;;;;;;2.70;1.00;;;7.10;99.90;;;;;;4986317;28;20046;-81
2023/03/05 10:32:37;;;;;;;3.78;2.17;;;7.30;99.90;;;;;;4984827;28;20477;-82
2023/03/05 10:35:25;;;;;;;2.60;0.90;;;7.40;99.90;;;;;;4986555;28;20130;-81
2023/03/05 10:38:16;;;;;;;5.75;1.00;;;7.40;99.90;;;;;;4985851;28;20054;-82
2023/03/05 10:40:46;;;;;;;3.78;1.00;;;7.30;99.90;;;;;;4986337;28;20038;-82
2023/03/05 10:43:41;;;;;;;3.90;1.02;;;7.30;99.90;;;;;;4986458;28;20128;-82
2023/03/05 10:46:15;;;;;;;3.47;0.60;;;7.40;99.90;;;;;;4986358;28;20058;-82
2023/03/05 10:49:05;;;;;;;2.33;0.75;;;7.40;99.90;;;;;;4988544;28;20042;-82
2023/03/05 10:51:37;;;;;;;6.00;1.00;;;7.30;99.90;;;;;;4984102;28;20078;-82
2023/03/05 10:54:28;;;;;;;5.15;0.70;;;7.30;99.90;;;;;;4970403;28;20050;-82
2023/03/05 10:57:19;;;;;;;2.30;0.70;;;7.20;99.90;;;;;;4984083;28;20545;-81
2023/03/05 10:59:59;;;;;;;3.05;0.90;;;7.40;99.90;;;;;;4983088;28;20046;-82
2023/03/05 11:02:26;;;;;;;2.92;0.70;;;7.50;99.90;;;;;;4979302;28;20838;-82
2023/03/05 11:04:54;;;;;;;2.17;1.13;;;7.40;99.90;;;;;;4987104;28;20046;-82
2023/03/05 11:07:29;;;;;;;4.43;1.55;;;7.10;99.90;;;;;;4985726;28;20524;-83
2023/03/05 11:10:04;;;;;;;4.45;0.80;;;6.70;99.90;;;;;;4983288;28;20359;-82
2023/03/05 11:12:38;;;;;;;2.85;0.85;;;6.40;99.90;;;;;;4985613;28;20077;-82
2023/03/05 11:15:12;;;;;;;4.35;1.20;;;6.20;99.90;;;;;;4982048;28;20069;-82
2023/03/05 11:17:47;;;;;;;1.23;0.63;;;6.00;99.90;;;;;;4986340;28;20049;-82
2023/03/05 11:20:30;;;;;;;3.22;0.70;;;5.90;99.90;;;;;;4969467;28;20058;-82
2023/03/05 11:23:14;;;;;;;2.83;0.98;;;5.80;99.90;;;;;;4986489;28;20043;-82
2023/03/05 11:26:00;;;;;;;2.33;0.93;;;5.80;99.90;;;;;;4968539;28;20038;-82
2023/03/05 11:28:35;;;;;;;1.73;1.27;;;5.80;99.90;;;;;;4981131;28;20134;-83
2023/03/05 11:31:06;;;;;;;3.80;0.80;;;5.10;99.90;;;;;;4981252;28;20050;-83
2023/03/05 11:33:35;;;;;;;3.17;0.77;;;6.00;99.90;;;;;;4990264;28;20039;-83
2023/03/05 11:36:31;;;;;;;2.38;0.68;;;6.00;99.90;;;;;;4976214;28;20030;-83
2023/03/05 11:39:07;;;;;;;3.08;0.75;;;6.00;99.90;;;;;;4982657;28;20066;-84
2023/03/05 11:41:52;;;;;;;1.83;0.70;;;6.10;99.90;;;;;;4967852;28;20062;-83
2023/03/05 11:44:36;;;;;;;3.03;0.77;;;6.20;99.90;;;;;;4984029;28;20568;-83
2023/03/05 11:47:35;;;;;;;3.78;0.93;;;6.20;99.90;;;;;;4986518;28;20054;-84
2023/03/05 11:50:25;;;;;;;2.60;0.82;;;6.30;99.90;;;;;;4984226;28;20049;-83
2023/03/05 11:53:00;;;;;;;4.72;0.80;;;6.40;99.90;;;;;;4965246;28;20050;-84
2023/03/05 11:55:43;;;;;;;2.13;1.02;;;6.50;99.90;;;;;;4985545;28;20054;-84
2023/03/05 11:58:40;;;;;;;3.78;0.70;;;6.50;99.90;;;;;;4985711;28;20136;-83
2023/03/05 12:01:20;;;;;;;3.35;0.98;;;6.60;99.90;;;;;;4984447;28;20042;-82
2023/03/05 12:03:46;;;;;;;2.38;0.70;;;6.50;99.90;;;;;;4969396;28;20081;-83
2023/03/05 12:06:16;;;;;;;4.10;1.13;;;6.10;99.90;;;;;;4985158;28;20105;-82
2023/03/05 12:08:47;;;;;;;2.90;0.70;;;6.60;99.90;;;;;;4986056;28;20489;-83
2023/03/05 12:11:27;;;;;;;4.15;1.23;;;6.70;99.90;;;;;;4965973;28;20043;-83
2023/03/05 12:14:04;;;;;;;3.10;0.80;;;6.80;99.90;;;;;;4984926;28;20073;-83
2023/03/05 12:16:38;;;;;;;2.38;0.88;;;6.90;99.90;;;;;;4983943;28;20504;-83
2023/03/05 12:19:31;;;;;;;4.10;0.90;;;7.10;99.90;;;;;;4984038;28;20401;-84
2023/03/05 12:21:58;;;;;;;4.40;0.80;;;7.20;99.90;;;;;;4986411;28;20042;-83
2023/03/05 12:24:23;;;;;;;1.55;0.80;;;7.40;99.90;;;;;;4989782;28;20042;-82
2023/03/05 12:26:52;;;;;;;4.28;0.88;;;7.50;99.90;;;;;;4973522;28;20049;-83
2023/03/05 12:29:42;;;;;;;4.45;0.95;;;7.60;99.90;;;;;;4987457;28;20046;-82
2023/03/05 12:32:24;;;;;;;2.22;0.70;;;7.70;99.90;;;;;;4988488;28;20047;-82
2023/03/05 12:35:00;;;;;;;5.00;0.80;;;7.90;99.90;;;;;;4985521;28;20054;-83
2023/03/05 12:37:26;;;;;;;2.25;0.80;;;7.80;99.90;;;;;;4989233;28;20055;-84
2023/03/05 12:40:06;;;;;;;3.28;1.00;;;8.20;99.90;;;;;;4989211;28;20062;-83
2023/03/05 12:42:32;;;;;;;3.92;0.90;;;7.90;99.90;;;;;;4971417;28;20077;-82
2023/03/05 12:45:15;;;;;;;3.83;0.80;;;8.50;99.90;;;;;;4989080;28;20046;-83
2023/03/05 12:47:42;;;;;;;2.03;0.70;;;8.00;99.90;;;;;;4989637;28;20042;-82
2023/03/05 12:50:28;;;;;;;5.55;1.02;;;8.10;99.90;;;;;;4972610;28;20108;-82
2023/03/05 12:53:03;;;;;;;3.22;1.10;;;8.20;99.90;;;;;;4981625;28;20505;-83
2023/03/05 12:55:32;;;;;;;3.20;0.68;;;8.90;99.90;;;;;;4985070;28;20057;-83
2023/03/05 12:58:12;;;;;;;2.45;0.80;;;7.80;99.90;;;;;;4985496;28;20057;-85
2023/03/05 13:00:52;;;;;;;2.17;0.90;;;6.90;99.90;;;;;;4988281;28;20490;-83
2023/03/05 13:03:22;;;;;;;4.32;1.23;;;6.80;99.90;;;;;;4987831;28;20089;-84
2023/03/05 13:05:53;;;;;;;5.03;1.00;;;6.80;99.90;;;;;;4988149;28;20559;-85
2023/03/05 13:08:22;;;;;;;1.40;1.08;;;6.00;99.90;;;;;;4988022;28;20069;-85
2023/03/05 13:11:19;;;;;;;4.20;1.05;;;6.00;99.90;;;;;;4986065;28;20548;-85